createdAt,value
2017-07-27T00:00:59.730Z,91.12
2017-07-27T00:01:59.824Z,91.41
2017-07-27T00:02:59.723Z,91.02
2017-07-27T00:03:59.813Z,91.12
2017-07-27T00:04:59.810Z,91.12
2017-07-27T00:05:59.708Z,91.02
2017-07-27T00:06:59.703Z,90.83
2017-07-27T00:07:59.695Z,91.02
2017-07-27T00:08:59.386Z,91.88
2017-07-27T00:09:59.784Z,91.78
2017-07-27T00:10:59.683Z,92.07
2017-07-27T00:11:59.676Z,91.78
2017-07-27T00:12:59.671Z,91.88
2017-07-27T00:13:59.814Z,91.78
2017-07-27T00:14:59.660Z,91.41
2017-07-27T00:15:59.657Z,91.6
2017-07-27T00:16:59.652Z,91.88
2017-07-27T00:17:59.645Z,91.78
2017-07-27T00:18:59.793Z,92.17
2017-07-27T00:19:59.636Z,91.88
2017-07-27T00:20:59.634Z,91.88
2017-07-27T00:21:59.625Z,91.98
2017-07-27T00:22:59.623Z,91.69
2017-07-27T00:23:59.720Z,91.88
2017-07-27T00:24:59.761Z,92.17
2017-07-27T00:25:59.611Z,91.98
2017-07-27T00:26:59.602Z,91.98
2017-07-27T00:27:59.597Z,91.6
2017-07-27T00:28:59.590Z,91.88
2017-07-27T00:29:59.585Z,91.88
2017-07-27T00:30:59.585Z,91.98
2017-07-27T00:31:59.576Z,92.36
2017-07-27T00:32:59.572Z,91.78
2017-07-27T00:33:59.565Z,91.88
2017-07-27T00:34:59.564Z,92.36
2017-07-27T00:35:59.351Z,92.46
2017-07-27T00:36:59.649Z,92.55
2017-07-27T00:37:59.666Z,92.26
2017-07-27T00:38:59.690Z,92.55
2017-07-27T00:39:59.533Z,92.26
2017-07-27T00:40:59.631Z,92.17
2017-07-27T00:41:59.222Z,92.26
2017-07-27T00:42:59.216Z,92.17
2017-07-27T00:43:59.516Z,92.36
2017-07-27T00:44:59.513Z,92.07
2017-07-27T00:45:59.653Z,92.17
2017-07-27T00:46:59.503Z,92.12
2017-07-27T00:47:59.495Z,92.12
2017-07-27T00:48:59.491Z,92.22
2017-07-27T00:49:59.182Z,92.26
2017-07-27T00:50:59.326Z,92.32
2017-07-27T00:51:59.473Z,92.12
2017-07-27T00:52:59.471Z,92.12
2017-07-27T00:53:59.565Z,92.12
2017-07-27T00:54:59.466Z,92.41
2017-07-27T00:55:59.456Z,92.69
2017-07-27T00:56:59.456Z,92.41
2017-07-27T00:57:59.443Z,92.22
2017-07-27T00:58:59.451Z,92.32
2017-07-27T00:59:59.436Z,92.6
2017-07-27T01:00:59.531Z,92.6
2017-07-27T01:01:59.579Z,92.98
2017-07-27T01:02:59.423Z,92.98
2017-07-27T01:03:59.415Z,92.98
2017-07-27T01:04:59.409Z,92.79
2017-07-27T01:05:59.406Z,92.79
2017-07-27T01:06:59.548Z,92.88
2017-07-27T01:07:59.395Z,92.98
2017-07-27T01:08:59.385Z,92.98
2017-07-27T01:09:59.382Z,92.88
2017-07-27T01:10:59.378Z,92.98
2017-07-27T01:11:59.072Z,92.98
2017-07-27T01:12:59.365Z,92.88
2017-07-27T01:13:59.364Z,92.98
2017-07-27T01:14:59.357Z,92.88
2017-07-27T01:15:59.354Z,92.88
2017-07-27T01:16:59.346Z,92.98
2017-07-27T01:17:59.345Z,92.79
2017-07-27T01:18:59.343Z,92.79
2017-07-27T01:19:59.327Z,92.98
2017-07-27T01:20:59.024Z,92.98
2017-07-27T01:21:59.321Z,92.69
2017-07-27T01:22:59.316Z,92.6
2017-07-27T01:23:59.310Z,92.5
2017-07-27T01:24:59.307Z,92.6
2017-07-27T01:25:59.304Z,92.5
2017-07-27T01:26:59.420Z,92.98
2017-07-27T01:27:59.292Z,92.98
2017-07-27T01:28:59.285Z,92.98
2017-07-27T01:29:59.278Z,92.98
2017-07-27T01:30:59.290Z,92.98
2017-07-27T01:31:59.369Z,93.17
2017-07-27T01:32:59.265Z,92.79
2017-07-27T01:33:59.261Z,92.6
2017-07-27T01:34:59.407Z,92.69
2017-07-27T01:35:59.251Z,92.6
2017-07-27T01:36:59.246Z,92.6
2017-07-27T01:37:59.237Z,92.79
2017-07-27T01:38:59.232Z,92.98
2017-07-27T01:39:59.229Z,93.08
2017-07-27T01:40:59.223Z,92.6
2017-07-27T01:41:59.218Z,93.08
2017-07-27T01:42:59.213Z,92.6
2017-07-27T01:43:59.209Z,93.08
2017-07-27T01:44:59.200Z,93.08
2017-07-27T01:45:59.301Z,92.88
2017-07-27T01:46:59.192Z,92.79
2017-07-27T01:47:59.290Z,92.88
2017-07-27T01:48:59.181Z,92.79
2017-07-27T01:49:59.179Z,93.36
2017-07-27T01:50:59.170Z,93.08
2017-07-27T01:51:59.167Z,93.08
2017-07-27T01:52:59.160Z,92.69
2017-07-27T01:53:59.156Z,92.88
2017-07-27T01:54:59.155Z,92.69
2017-07-27T01:55:59.146Z,92.79
2017-07-27T01:56:59.141Z,92.79
2017-07-27T01:57:59.238Z,93.08
2017-07-27T01:58:59.129Z,92.79
2017-07-27T01:59:59.126Z,92.79
2017-07-27T02:00:59.121Z,92.69
2017-07-27T02:01:59.117Z,92.69
2017-07-27T02:02:59.210Z,93.36
2017-07-27T02:03:58.799Z,93.55
2017-07-27T02:04:59.101Z,93.84
2017-07-27T02:05:59.094Z,93.65
2017-07-27T02:06:59.089Z,93.74
2017-07-27T02:07:59.084Z,93.93
2017-07-27T02:08:59.080Z,93.84
2017-07-27T02:09:59.076Z,93.65
2017-07-27T02:10:59.070Z,93.46
2017-07-27T02:11:59.065Z,93.46
2017-07-27T02:12:59.061Z,93.65
2017-07-27T02:13:59.050Z,93.65
2017-07-27T02:14:59.048Z,93.65
2017-07-27T02:15:59.041Z,93.65
2017-07-27T02:16:59.041Z,93.65
2017-07-27T02:17:59.032Z,93.55
2017-07-27T02:18:59.027Z,93.84
2017-07-27T02:19:59.022Z,93.84
2017-07-27T02:20:59.118Z,93.65
2017-07-27T02:21:59.015Z,93.88
2017-07-27T02:22:59.108Z,93.65
2017-07-27T02:23:59.002Z,93.65
2017-07-27T02:24:59.098Z,93.84
2017-07-27T02:25:58.991Z,93.84
2017-07-27T02:26:58.983Z,93.65
2017-07-27T02:27:58.978Z,93.65
2017-07-27T02:28:58.976Z,93.55
2017-07-27T02:29:58.968Z,93.65
2017-07-27T02:31:01.624Z,93.74
2017-07-27T02:31:58.658Z,93.65
2017-07-27T02:32:59.103Z,93.65
2017-07-27T02:33:58.947Z,93.74
2017-07-27T02:34:58.943Z,93.84
2017-07-27T02:35:58.942Z,93.84
2017-07-27T02:36:58.931Z,93.84
2017-07-27T02:37:58.936Z,93.74
2017-07-27T02:38:59.024Z,93.65
2017-07-27T02:39:58.921Z,93.84
2017-07-27T02:40:58.916Z,93.74
2017-07-27T02:41:59.009Z,93.84
2017-07-27T02:42:59.056Z,93.36
2017-07-27T02:43:58.900Z,93.7
2017-07-27T02:44:58.891Z,93.65
2017-07-27T02:45:58.588Z,93.84
2017-07-27T02:46:59.031Z,93.74
2017-07-27T02:47:58.976Z,93.65
2017-07-27T02:48:58.870Z,93.55
2017-07-27T02:49:58.662Z,93.65
2017-07-27T02:50:58.552Z,93.84
2017-07-27T02:51:58.956Z,93.65
2017-07-27T02:52:58.950Z,93.84
2017-07-27T02:53:58.845Z,93.65
2017-07-27T02:54:58.539Z,93.46
2017-07-27T02:55:58.837Z,93.65
2017-07-27T02:56:58.828Z,93.65
2017-07-27T02:57:58.930Z,93.27
2017-07-27T02:58:58.918Z,93.84
2017-07-27T02:59:58.812Z,93.65
2017-07-27T03:00:58.914Z,93.65
2017-07-27T03:01:58.802Z,93.65
2017-07-27T03:02:58.798Z,93.7
2017-07-27T03:03:58.792Z,93.6
2017-07-27T03:04:58.886Z,93.98
2017-07-27T03:05:58.886Z,93.7
2017-07-27T03:06:58.777Z,93.7
2017-07-27T03:07:58.771Z,93.6
2017-07-27T03:08:58.767Z,93.51
2017-07-27T03:09:58.859Z,93.51
2017-07-27T03:10:58.853Z,93.7
2017-07-27T03:11:58.749Z,93.7
2017-07-27T03:12:58.746Z,93.79
2017-07-27T03:13:58.838Z,93.79
2017-07-27T03:14:58.579Z,93.79
2017-07-27T03:15:58.830Z,93.6
2017-07-27T03:16:58.724Z,93.51
2017-07-27T03:17:58.720Z,93.41
2017-07-27T03:18:58.714Z,93.88
2017-07-27T03:19:58.708Z,93.6
2017-07-27T03:20:58.810Z,93.6
2017-07-27T03:21:58.698Z,93.51
2017-07-27T03:22:58.693Z,93.12
2017-07-27T03:23:58.687Z,93.31
2017-07-27T03:24:58.681Z,93.31
2017-07-27T03:25:58.779Z,93.31
2017-07-27T03:26:58.671Z,93.31
2017-07-27T03:27:58.668Z,93.31
2017-07-27T03:28:58.769Z,92.83
2017-07-27T03:29:58.808Z,92.74
2017-07-27T03:30:58.670Z,92.74
2017-07-27T03:31:58.648Z,92.83
2017-07-27T03:32:58.641Z,93.12
2017-07-27T03:33:58.737Z,92.83
2017-07-27T03:34:58.632Z,92.74
2017-07-27T03:35:58.624Z,92.65
2017-07-27T03:36:58.622Z,93.12
2017-07-27T03:37:58.713Z,93.12
2017-07-27T03:38:58.613Z,93.02
2017-07-27T03:39:58.610Z,92.83
2017-07-27T03:40:58.600Z,93.02
2017-07-27T03:41:58.591Z,92.69
2017-07-27T03:42:58.589Z,92.79
2017-07-27T03:43:58.581Z,92.6
2017-07-27T03:44:58.578Z,92.69
2017-07-27T03:45:58.775Z,92.69
2017-07-27T03:46:58.567Z,92.88
2017-07-27T03:47:58.562Z,92.88
2017-07-27T03:48:58.556Z,92.88
2017-07-27T03:49:58.246Z,92.79
2017-07-27T03:50:58.648Z,92.79
2017-07-27T03:51:58.542Z,92.97
2017-07-27T03:52:58.537Z,92.97
2017-07-27T03:53:58.533Z,92.97
2017-07-27T03:54:58.226Z,93.07
2017-07-27T03:55:58.519Z,93.07
2017-07-27T03:56:58.516Z,92.88
2017-07-27T03:57:58.512Z,93.17
2017-07-27T03:58:58.653Z,92.97
2017-07-27T03:59:58.599Z,92.88
2017-07-27T04:00:58.496Z,92.88
2017-07-27T04:01:58.491Z,92.6
2017-07-27T04:02:58.484Z,92.97
2017-07-27T04:03:58.628Z,92.69
2017-07-27T04:04:58.472Z,92.88
2017-07-27T04:05:58.468Z,92.97
2017-07-27T04:06:58.461Z,92.69
2017-07-27T04:07:58.607Z,92.69
2017-07-27T04:08:58.454Z,92.88
2017-07-27T04:09:58.447Z,92.97
2017-07-27T04:10:58.593Z,93.07
2017-07-27T04:11:58.436Z,93.07
2017-07-27T04:12:58.430Z,93.07
2017-07-27T04:13:58.427Z,93.12
2017-07-27T04:14:58.420Z,93.12
2017-07-27T04:15:58.108Z,92.74
2017-07-27T04:16:58.102Z,92.45
2017-07-27T04:17:58.404Z,92.45
2017-07-27T04:18:58.093Z,92.36
2017-07-27T04:19:58.394Z,92.74
2017-07-27T04:20:58.084Z,92.26
2017-07-27T04:21:58.384Z,92.36
2017-07-27T04:22:58.379Z,92.36
2017-07-27T04:23:58.373Z,92.07
2017-07-27T04:24:58.369Z,92.36
2017-07-27T04:25:58.363Z,92.26
2017-07-27T04:26:58.359Z,92.36
2017-07-27T04:27:58.349Z,92.36
2017-07-27T04:28:58.351Z,92.16
2017-07-27T04:29:58.343Z,92.45
2017-07-27T04:30:58.335Z,91.97
2017-07-27T04:31:58.328Z,92.16
2017-07-27T04:32:58.021Z,91.97
2017-07-27T04:33:58.422Z,91.97
2017-07-27T04:34:58.313Z,92.02
2017-07-27T04:35:58.006Z,91.64
2017-07-27T04:36:58.305Z,91.93
2017-07-27T04:37:58.398Z,92.02
2017-07-27T04:38:58.299Z,91.83
2017-07-27T04:39:58.390Z,92.11
2017-07-27T04:40:58.284Z,92.02
2017-07-27T04:41:58.353Z,91.16
2017-07-27T04:42:58.276Z,91.16
2017-07-27T04:43:58.369Z,91.35
2017-07-27T04:44:58.263Z,91.45
2017-07-27T04:45:58.258Z,90.97
2017-07-27T04:46:58.260Z,90.88
2017-07-27T04:47:58.246Z,91.25
2017-07-27T04:48:58.342Z,91.06
2017-07-27T04:49:57.931Z,90.97
2017-07-27T04:50:57.927Z,91.06
2017-07-27T04:51:58.228Z,90.88
2017-07-27T04:52:58.321Z,90.68
2017-07-27T04:53:58.318Z,90.68
2017-07-27T04:54:57.907Z,90.88
2017-07-27T04:55:58.306Z,90.68
2017-07-27T04:56:58.203Z,90.78
2017-07-27T04:57:58.298Z,90.78
2017-07-27T04:58:58.194Z,90.78
2017-07-27T04:59:58.188Z,90.78
2017-07-27T05:00:58.281Z,90.59
2017-07-27T05:01:58.176Z,90.68
2017-07-27T05:02:58.169Z,90.59
2017-07-27T05:03:57.862Z,90.49
2017-07-27T05:04:58.161Z,90.59
2017-07-27T05:05:58.154Z,90.78
2017-07-27T05:06:58.152Z,90.53
2017-07-27T05:07:58.145Z,90.68
2017-07-27T05:08:57.834Z,90.59
2017-07-27T05:09:58.132Z,90.49
2017-07-27T05:10:57.822Z,89.92
2017-07-27T05:11:58.224Z,89.92
2017-07-27T05:12:58.118Z,90.3
2017-07-27T05:13:57.809Z,90.34
2017-07-27T05:14:58.218Z,90.25
2017-07-27T05:15:58.102Z,89.77
2017-07-27T05:16:57.793Z,89.96
2017-07-27T05:17:57.788Z,89.87
2017-07-27T05:18:57.781Z,89.96
2017-07-27T05:19:57.779Z,89.96
2017-07-27T05:20:58.224Z,89.87
2017-07-27T05:21:58.073Z,89.77
2017-07-27T05:22:57.761Z,89.58
2017-07-27T05:23:58.077Z,89.48
2017-07-27T05:24:58.055Z,89.77
2017-07-27T05:25:57.848Z,88.95
2017-07-27T05:26:58.048Z,89.34
2017-07-27T05:27:58.040Z,89.15
2017-07-27T05:28:58.037Z,89.24
2017-07-27T05:29:58.033Z,89.24
2017-07-27T05:30:57.871Z,89.43
2017-07-27T05:31:58.027Z,89.24
2017-07-27T05:32:57.810Z,89.53
2017-07-27T05:33:58.010Z,89.15
2017-07-27T05:34:58.008Z,88.67
2017-07-27T05:35:57.997Z,88.38
2017-07-27T05:36:57.839Z,88.48
2017-07-27T05:37:57.991Z,88.86
2017-07-27T05:38:57.985Z,88.67
2017-07-27T05:39:57.673Z,88.67
2017-07-27T05:40:57.670Z,88.48
2017-07-27T05:41:58.121Z,88.48
2017-07-27T05:42:57.966Z,88.38
2017-07-27T05:43:58.159Z,88.19
2017-07-27T05:44:58.055Z,88.38
2017-07-27T05:45:57.951Z,88.48
2017-07-27T05:46:57.967Z,88.48
2017-07-27T05:47:57.939Z,88.67
2017-07-27T05:48:58.036Z,88.76
2017-07-27T05:49:57.929Z,88.48
2017-07-27T05:50:57.923Z,88.57
2017-07-27T05:51:57.924Z,88.29
2017-07-27T05:52:57.912Z,88.19
2017-07-27T05:53:58.007Z,88.86
2017-07-27T05:54:57.905Z,88.29
2017-07-27T05:55:58.007Z,88.57
2017-07-27T05:56:57.894Z,88.86
2017-07-27T05:57:57.892Z,88.86
2017-07-27T05:58:57.883Z,88.86
2017-07-27T05:59:57.581Z,88.67
2017-07-27T06:00:57.879Z,88.86
2017-07-27T06:01:57.875Z,88.67
2017-07-27T06:02:57.870Z,88.57
2017-07-27T06:03:57.867Z,88.67
2017-07-27T06:04:57.961Z,88.67
2017-07-27T06:05:57.854Z,88.67
2017-07-27T06:06:57.848Z,88.86
2017-07-27T06:07:57.843Z,88.76
2017-07-27T06:08:57.839Z,88.86
2017-07-27T06:09:57.836Z,88.67
2017-07-27T06:10:57.828Z,88.67
2017-07-27T06:11:57.824Z,88.86
2017-07-27T06:12:57.613Z,88.76
2017-07-27T06:13:57.814Z,88.76
2017-07-27T06:14:57.806Z,88.57
2017-07-27T06:15:57.801Z,88.57
2017-07-27T06:16:57.900Z,88.57
2017-07-27T06:17:57.792Z,88.57
2017-07-27T06:18:57.790Z,88.62
2017-07-27T06:19:57.783Z,88.52
2017-07-27T06:20:57.776Z,88.62
2017-07-27T06:21:57.773Z,89.19
2017-07-27T06:22:57.869Z,88.62
2017-07-27T06:23:57.762Z,88.81
2017-07-27T06:24:57.754Z,88.62
2017-07-27T06:25:57.753Z,88.67
2017-07-27T06:26:57.749Z,88.62
2017-07-27T06:27:57.742Z,89.19
2017-07-27T06:28:57.736Z,88.71
2017-07-27T06:29:57.731Z,89.15
2017-07-27T06:30:57.727Z,88.76
2017-07-27T06:31:57.721Z,88.86
2017-07-27T06:32:57.717Z,89.24
2017-07-27T06:33:57.709Z,89.24
2017-07-27T06:34:57.707Z,89.19
2017-07-27T06:35:57.394Z,88.95
2017-07-27T06:36:57.695Z,89.53
2017-07-27T06:37:57.690Z,89.58
2017-07-27T06:38:57.838Z,89.43
2017-07-27T06:39:57.682Z,89.29
2017-07-27T06:40:57.367Z,89.38
2017-07-27T06:41:57.673Z,89.29
2017-07-27T06:42:57.664Z,89.58
2017-07-27T06:43:57.759Z,89.09
2017-07-27T06:44:57.653Z,89
2017-07-27T06:45:57.658Z,88.81
2017-07-27T06:46:57.644Z,89.19
2017-07-27T06:47:57.743Z,89.58
2017-07-27T06:48:57.633Z,89
2017-07-27T06:49:57.322Z,88.9
2017-07-27T06:50:57.628Z,89.09
2017-07-27T06:51:57.618Z,88.81
2017-07-27T06:52:57.614Z,88.81
2017-07-27T06:53:57.307Z,88.52
2017-07-27T06:54:57.605Z,88.62
2017-07-27T06:55:57.596Z,88.81
2017-07-27T06:56:57.593Z,88.52
2017-07-27T06:57:57.689Z,88.71
2017-07-27T06:58:57.583Z,88.33
2017-07-27T06:59:57.424Z,88.52
2017-07-27T07:00:57.573Z,88.43
2017-07-27T07:01:57.572Z,88.9
2017-07-27T07:02:57.561Z,88.52
2017-07-27T07:03:57.557Z,88.81
2017-07-27T07:04:57.549Z,88.62
2017-07-27T07:05:57.549Z,88.52
2017-07-27T07:06:57.545Z,88.47
2017-07-27T07:07:57.537Z,88.43
2017-07-27T07:08:57.532Z,88.47
2017-07-27T07:09:57.525Z,88.47
2017-07-27T07:10:57.530Z,88.28
2017-07-27T07:11:57.515Z,88.47
2017-07-27T07:12:57.513Z,88.76
2017-07-27T07:13:57.505Z,88.66
2017-07-27T07:14:57.501Z,88.76
2017-07-27T07:15:57.499Z,88.37
2017-07-27T07:16:57.490Z,88.47
2017-07-27T07:17:57.485Z,88.56
2017-07-27T07:18:57.484Z,89.04
2017-07-27T07:19:57.477Z,88.62
2017-07-27T07:20:57.165Z,89.19
2017-07-27T07:21:57.466Z,89.67
2017-07-27T07:22:57.468Z,89.29
2017-07-27T07:23:57.457Z,89.38
2017-07-27T07:24:57.452Z,89.86
2017-07-27T07:25:57.449Z,89.76
2017-07-27T07:26:57.440Z,89.86
2017-07-27T07:27:57.537Z,89.67
2017-07-27T07:28:57.432Z,89.76
2017-07-27T07:29:57.427Z,89.95
2017-07-27T07:30:57.422Z,90.05
2017-07-27T07:31:57.412Z,90.05
2017-07-27T07:32:57.410Z,90.05
2017-07-27T07:33:57.506Z,89.76
2017-07-27T07:34:57.402Z,89.86
2017-07-27T07:35:57.394Z,90.44
2017-07-27T07:36:57.393Z,90.82
2017-07-27T07:37:57.386Z,89.86
2017-07-27T07:38:57.530Z,89.95
2017-07-27T07:39:57.381Z,89.76
2017-07-27T07:40:57.372Z,89.86
2017-07-27T07:41:57.368Z,90.91
2017-07-27T07:42:57.363Z,90.63
2017-07-27T07:43:57.354Z,90.72
2017-07-27T07:44:57.355Z,90.91
2017-07-27T07:45:57.346Z,90.63
2017-07-27T07:46:57.340Z,90.82
2017-07-27T07:47:57.342Z,90.91
2017-07-27T07:48:57.328Z,91.3
2017-07-27T07:49:57.424Z,91.49
2017-07-27T07:50:57.318Z,91.39
2017-07-27T07:51:57.313Z,91.11
2017-07-27T07:52:57.311Z,91.39
2017-07-27T07:53:57.309Z,90.91
2017-07-27T07:54:57.301Z,91.2
2017-07-27T07:55:57.297Z,91.3
2017-07-27T07:56:57.293Z,91.49
2017-07-27T07:57:57.284Z,91.63
2017-07-27T07:58:57.278Z,91.49
2017-07-27T07:59:57.277Z,91.49
2017-07-27T08:00:57.269Z,91.2
2017-07-27T08:01:57.265Z,91.39
2017-07-27T08:02:57.366Z,91.3
2017-07-27T08:03:57.252Z,92.16
2017-07-27T08:04:57.254Z,91.97
2017-07-27T08:05:56.939Z,91.97
2017-07-27T08:06:56.937Z,92.16
2017-07-27T08:07:57.234Z,91.97
2017-07-27T08:08:57.377Z,92.21
2017-07-27T08:09:57.225Z,91.82
2017-07-27T08:10:56.914Z,91.92
2017-07-27T08:11:57.217Z,91.92
2017-07-27T08:12:57.208Z,92.06
2017-07-27T08:13:57.302Z,92.01
2017-07-27T08:14:56.892Z,91.97
2017-07-27T08:15:56.889Z,92.11
2017-07-27T08:16:57.194Z,92.11
2017-07-27T08:17:57.187Z,92.01
2017-07-27T08:18:56.871Z,91.92
2017-07-27T08:19:56.869Z,91.72
2017-07-27T08:20:56.864Z,91.25
2017-07-27T08:21:56.857Z,91.44
2017-07-27T08:22:56.953Z,91.63
2017-07-27T08:23:56.847Z,91.05
2017-07-27T08:24:56.840Z,91.05
2017-07-27T08:25:57.147Z,91.34
2017-07-27T08:26:57.139Z,91.53
2017-07-27T08:27:56.926Z,91.44
2017-07-27T08:28:57.236Z,91.25
2017-07-27T08:29:57.127Z,91.15
2017-07-27T08:30:57.119Z,90.91
2017-07-27T08:31:57.244Z,90.67
2017-07-27T08:32:56.802Z,90.91
2017-07-27T08:33:56.795Z,90.81
2017-07-27T08:34:56.792Z,90.43
2017-07-27T08:35:56.787Z,90.14
2017-07-27T08:36:56.781Z,90.48
2017-07-27T08:37:57.082Z,90.19
2017-07-27T08:38:57.075Z,90.48
2017-07-27T08:39:56.970Z,89.95
2017-07-27T08:40:56.765Z,90.09
2017-07-27T08:41:56.752Z,89.81
2017-07-27T08:42:56.754Z,89.72
2017-07-27T08:43:56.747Z,90.09
2017-07-27T08:44:56.841Z,89.62
2017-07-27T08:45:57.041Z,89.81
2017-07-27T08:46:57.041Z,89.81
2017-07-27T08:47:56.726Z,89.9
2017-07-27T08:48:56.719Z,89.9
2017-07-27T08:49:57.028Z,89.72
2017-07-27T08:50:56.714Z,90
2017-07-27T08:51:56.708Z,90.58
2017-07-27T08:52:57.108Z,90.29
2017-07-27T08:53:57.003Z,89.9
2017-07-27T08:54:57.000Z,90.09
2017-07-27T08:55:56.992Z,89.81
2017-07-27T08:56:56.984Z,89.9
2017-07-27T08:57:56.983Z,89.81
2017-07-27T08:58:56.978Z,90.09
2017-07-27T08:59:56.973Z,89.9
2017-07-27T09:00:56.965Z,90.09
2017-07-27T09:01:56.754Z,89.9
2017-07-27T09:02:56.956Z,89.86
2017-07-27T09:03:56.951Z,89.95
2017-07-27T09:04:56.945Z,90.14
2017-07-27T09:05:56.945Z,90.33
2017-07-27T09:06:57.041Z,90.14
2017-07-27T09:07:56.930Z,90.14
2017-07-27T09:08:56.928Z,90.14
2017-07-27T09:09:56.928Z,89.95
2017-07-27T09:10:57.063Z,90.05
2017-07-27T09:11:56.911Z,90.05
2017-07-27T09:12:56.907Z,90.23
2017-07-27T09:13:56.901Z,90.33
2017-07-27T09:14:56.896Z,89.86
2017-07-27T09:15:57.051Z,89.95
2017-07-27T09:16:56.885Z,90.53
2017-07-27T09:17:57.036Z,90.09
2017-07-27T09:18:56.873Z,90
2017-07-27T09:19:56.870Z,89.9
2017-07-27T09:20:56.966Z,90.39
2017-07-27T09:21:56.862Z,90.77
2017-07-27T09:22:56.853Z,90.77
2017-07-27T09:23:56.848Z,90.77
2017-07-27T09:24:56.845Z,90.67
2017-07-27T09:25:56.838Z,90.58
2017-07-27T09:26:56.831Z,90.48
2017-07-27T09:27:56.831Z,90.86
2017-07-27T09:28:56.824Z,90.77
2017-07-27T09:29:56.511Z,90.86
2017-07-27T09:30:56.815Z,90.86
2017-07-27T09:31:56.807Z,90.96
2017-07-27T09:32:56.801Z,91.25
2017-07-27T09:33:56.802Z,90.67
2017-07-27T09:34:56.486Z,91.44
2017-07-27T09:35:56.790Z,91.39
2017-07-27T09:36:56.893Z,91.34
2017-07-27T09:37:56.777Z,91.1
2017-07-27T09:38:56.769Z,91.39
2017-07-27T09:39:56.766Z,91.25
2017-07-27T09:40:56.766Z,91.1
2017-07-27T09:41:56.759Z,91.15
2017-07-27T09:42:56.753Z,91.19
2017-07-27T09:43:56.748Z,91.19
2017-07-27T09:44:56.748Z,91.39
2017-07-27T09:45:56.739Z,91.39
2017-07-27T09:46:56.734Z,91.49
2017-07-27T09:47:56.831Z,91.58
2017-07-27T09:48:56.727Z,91.29
2017-07-27T09:49:56.719Z,91.29
2017-07-27T09:50:56.713Z,91.77
2017-07-27T09:51:56.704Z,91.29
2017-07-27T09:52:56.394Z,91.19
2017-07-27T09:53:56.695Z,91.58
2017-07-27T09:54:56.692Z,91.29
2017-07-27T09:55:56.688Z,91.29
2017-07-27T09:56:56.374Z,91.19
2017-07-27T09:57:56.679Z,92.15
2017-07-27T09:58:56.824Z,92.44
2017-07-27T09:59:56.667Z,92.06
2017-07-27T10:00:56.663Z,92.25
2017-07-27T10:01:56.657Z,92.06
2017-07-27T10:02:56.653Z,92.35
2017-07-27T10:03:56.645Z,92.25
2017-07-27T10:04:56.334Z,91.82
2017-07-27T10:05:56.736Z,91.34
2017-07-27T10:06:56.631Z,91.34
2017-07-27T10:07:56.628Z,91.72
2017-07-27T10:08:56.623Z,91.63
2017-07-27T10:09:56.618Z,91.24
2017-07-27T10:10:56.612Z,91.34
2017-07-27T10:11:56.606Z,91.57
2017-07-27T10:12:56.600Z,90.9
2017-07-27T10:13:56.596Z,90.81
2017-07-27T10:14:56.590Z,90.9
2017-07-27T10:15:56.586Z,90.23
2017-07-27T10:16:56.581Z,90.23
2017-07-27T10:17:56.271Z,90.04
2017-07-27T10:18:56.267Z,90.18
2017-07-27T10:19:56.261Z,89.99
2017-07-27T10:20:56.562Z,89.61
2017-07-27T10:21:56.554Z,89.61
2017-07-27T10:22:56.553Z,89.41
2017-07-27T10:23:56.547Z,89.41
2017-07-27T10:24:56.540Z,89.12
2017-07-27T10:25:56.537Z,88.84
2017-07-27T10:26:56.634Z,89.03
2017-07-27T10:27:56.222Z,88.45
2017-07-27T10:28:56.521Z,89.03
2017-07-27T10:29:56.213Z,88.21
2017-07-27T10:30:56.516Z,88.4
2017-07-27T10:31:56.508Z,88.31
2017-07-27T10:32:56.504Z,88.49
2017-07-27T10:33:56.501Z,88.21
2017-07-27T10:34:56.500Z,87.73
2017-07-27T10:35:56.593Z,87.92
2017-07-27T10:36:56.488Z,88.31
2017-07-27T10:37:56.483Z,88.02
2017-07-27T10:38:56.473Z,87.96
2017-07-27T10:39:56.573Z,88.06
2017-07-27T10:40:56.488Z,87.05
2017-07-27T10:41:56.461Z,86.95
2017-07-27T10:42:56.456Z,86.13
2017-07-27T10:43:56.555Z,85.84
2017-07-27T10:44:56.450Z,85.46
2017-07-27T10:45:56.448Z,84.98
2017-07-27T10:46:56.442Z,85.02
2017-07-27T10:47:56.433Z,84.54
2017-07-27T10:48:56.531Z,84.34
2017-07-27T10:49:56.525Z,83.86
2017-07-27T10:50:56.421Z,84.44
2017-07-27T10:51:56.111Z,84.16
2017-07-27T10:52:56.419Z,83.77
2017-07-27T10:53:56.513Z,83.58
2017-07-27T10:54:56.402Z,83.67
2017-07-27T10:55:56.404Z,83.25
2017-07-27T10:56:56.392Z,83.48
2017-07-27T10:57:56.392Z,83.48
2017-07-27T10:58:56.389Z,83.19
2017-07-27T10:59:56.387Z,82.71
2017-07-27T11:00:56.377Z,82.81
2017-07-27T11:01:56.375Z,82.71
2017-07-27T11:02:56.372Z,82.42
2017-07-27T11:03:56.369Z,82.52
2017-07-27T11:04:56.361Z,82.42
2017-07-27T11:05:56.356Z,82.61
2017-07-27T11:06:56.046Z,82.23
2017-07-27T11:07:56.346Z,82.23
2017-07-27T11:08:56.344Z,81.75
2017-07-27T11:09:56.129Z,81.4
2017-07-27T11:10:56.336Z,81.56
2017-07-27T11:11:56.332Z,81.07
2017-07-27T11:12:56.325Z,80.88
2017-07-27T11:13:56.323Z,80.4
2017-07-27T11:14:56.328Z,80.4
2017-07-27T11:15:56.316Z,80.98
2017-07-27T11:16:56.310Z,80.98
2017-07-27T11:17:56.316Z,80.98
2017-07-27T11:18:56.299Z,81.17
2017-07-27T11:19:56.297Z,80.6
2017-07-27T11:20:56.294Z,80.79
2017-07-27T11:21:56.293Z,80.88
2017-07-27T11:22:55.975Z,80.21
2017-07-27T11:23:56.280Z,80.25
2017-07-27T11:24:56.274Z,80.44
2017-07-27T11:25:56.270Z,80.25
2017-07-27T11:26:56.267Z,79.96
2017-07-27T11:27:56.266Z,79.67
2017-07-27T11:28:56.258Z,79.58
2017-07-27T11:29:55.951Z,79.67
2017-07-27T11:30:56.253Z,79.19
2017-07-27T11:31:55.939Z,79.19
2017-07-27T11:32:56.244Z,79.38
2017-07-27T11:33:56.239Z,79.58
2017-07-27T11:34:56.240Z,79.38
2017-07-27T11:35:56.241Z,79.38
2017-07-27T11:36:56.223Z,79.28
2017-07-27T11:37:56.221Z,79.28
2017-07-27T11:38:56.318Z,79.58
2017-07-27T11:39:56.218Z,78.81
2017-07-27T11:40:56.358Z,78.81
2017-07-27T11:41:56.203Z,78.81
2017-07-27T11:42:56.212Z,78.81
2017-07-27T11:43:56.198Z,78.33
2017-07-27T11:44:56.190Z,77.84
2017-07-27T11:45:56.188Z,77.5
2017-07-27T11:46:56.185Z,76.73
2017-07-27T11:47:56.181Z,75.86
2017-07-27T11:48:56.274Z,75.96
2017-07-27T11:49:56.175Z,75.51
2017-07-27T11:50:56.264Z,75.67
2017-07-27T11:51:56.161Z,75.13
2017-07-27T11:52:56.159Z,75.32
2017-07-27T11:53:56.162Z,75.03
2017-07-27T11:54:56.153Z,74.45
2017-07-27T11:55:56.152Z,74.55
2017-07-27T11:56:56.141Z,74.55
2017-07-27T11:57:56.139Z,74.36
2017-07-27T11:58:56.233Z,74.36
2017-07-27T11:59:56.128Z,74.26
2017-07-27T12:00:55.816Z,74.36
2017-07-27T12:01:56.220Z,74.65
2017-07-27T12:02:56.117Z,73.97
2017-07-27T12:03:56.110Z,73.97
2017-07-27T12:04:55.800Z,73.97
2017-07-27T12:05:56.210Z,74.07
2017-07-27T12:06:56.098Z,73.97
2017-07-27T12:07:56.098Z,74.07
2017-07-27T12:08:56.094Z,73.78
2017-07-27T12:09:56.085Z,73.97
2017-07-27T12:10:55.775Z,73.97
2017-07-27T12:11:56.080Z,73.97
2017-07-27T12:12:56.074Z,74.01
2017-07-27T12:13:56.170Z,73.97
2017-07-27T12:14:56.065Z,73.97
2017-07-27T12:15:56.063Z,74.07
2017-07-27T12:16:56.059Z,74.45
2017-07-27T12:17:56.052Z,74.4
2017-07-27T12:18:56.056Z,74.2
2017-07-27T12:19:56.045Z,74.2
2017-07-27T12:20:56.041Z,74.01
2017-07-27T12:21:56.036Z,73.33
2017-07-27T12:22:55.827Z,73.43
2017-07-27T12:23:56.029Z,73.82
2017-07-27T12:24:56.024Z,72.69
2017-07-27T12:25:56.023Z,72.69
2017-07-27T12:26:56.016Z,73.08
2017-07-27T12:27:55.706Z,72.79
2017-07-27T12:28:56.009Z,72.69
2017-07-27T12:29:56.006Z,72.31
2017-07-27T12:30:56.001Z,72.21
2017-07-27T12:31:55.994Z,72.02
2017-07-27T12:32:55.989Z,72.31
2017-07-27T12:33:55.988Z,73.08
2017-07-27T12:34:55.983Z,72.79
2017-07-27T12:35:55.979Z,72.5
2017-07-27T12:36:55.668Z,72.79
2017-07-27T12:37:55.970Z,72.85
2017-07-27T12:38:55.760Z,72.95
2017-07-27T12:39:55.654Z,73.08
2017-07-27T12:40:55.652Z,73.37
2017-07-27T12:41:55.646Z,71.64
2017-07-27T12:42:56.057Z,71.64
2017-07-27T12:43:55.640Z,70.8
2017-07-27T12:44:56.043Z,69.74
2017-07-27T12:45:55.628Z,69.84
2017-07-27T12:46:55.934Z,68.87
2017-07-27T12:47:55.623Z,68.68
2017-07-27T12:48:55.617Z,68.97
2017-07-27T12:49:55.617Z,69.16
2017-07-27T12:50:55.609Z,69.35
2017-07-27T12:51:55.707Z,69.45
2017-07-27T12:52:55.910Z,69.35
2017-07-27T12:53:55.597Z,69.35
2017-07-27T12:54:55.596Z,69.55